Pavlodar, Kazakhstan
Current Conditions -  °F | °C
As of 2:00 PM on Thursday 18 Dec 2014 (Local Time) from UASP Reporting Station
Clear Clear  
Wind Chill:   Ceiling: Unl
Heat Index: 12°   Visibility: 6mi
Dew Point:   Wind: 9mph
Humidity: 79%   Direction: 110°ESE
Pressure: 30.53"   Gusts: NA
Location:  52.3°N, 76.95°E
Report Text: UASP 180800Z 11004MPS CAVOK M11/M14 Q1034 R21/390250 NOSIG RMKQFE764/1019
Loading
Personal Weather Stations






























Interactive Weather Map New forecast layout! Learn more

10-Day Weather Forecast

Advertisements
Track Severe Weather on mobile